Time;durP1;ratioP1;P1;durP2;ratioP2;P2;SDS_P1;SDS_P2;PMS_P1;PMS_P2;Temp;Humidity;BMP_temperature;BMP_pressure;BME280_temperature;BME280_humidity;BME280_pressure;Samples;Min_cycle;Max_cycle;Signal;HPM_P1;HPM_P2
2022/06/03 00:01:20;;;;;;;;;;;;;;;16.30;88.07;99747.03;5038378;28;19971;-73
2022/06/03 00:03:54;;;;;;;;;;;;;;;16.27;88.23;99752.38;5023861;28;20023;-71
2022/06/03 00:06:29;;;;;;;;;;;;;;;16.21;88.76;99750.88;5024245;28;20031;-72
2022/06/03 00:09:12;;;;;;;;;;;;;;;16.16;89.09;99749.88;5023846;28;20466;-72
2022/06/03 00:11:46;;;;;;;;;;;;;;;16.16;89.14;99752.66;5018949;28;19987;-72
2022/06/03 00:14:25;;;;;;;;;;;;;;;16.17;89.11;99750.69;5023985;28;20036;-73
2022/06/03 00:16:59;;;;;;;;;;;;;;;16.18;89.24;99746.00;5038882;28;19946;-73
2022/06/03 00:19:40;;;;;;;;;;;;;;;16.15;89.09;99741.91;5023537;28;20039;-72
2022/06/03 00:22:14;;;;;;;;;;;;;;;16.16;88.83;99740.78;5016171;28;19925;-72
2022/06/03 00:24:50;;;;;;;;;;;;;;;16.12;89.11;99743.34;4986365;28;20282;-72
2022/06/03 00:27:30;;;;;;;;;;;;;;;16.10;88.90;99744.81;4986957;28;20377;-73
2022/06/03 00:30:01;;;;;;;;;;;;;;;16.09;89.00;99752.25;5003127;28;20369;-71
2022/06/03 00:32:46;;;;;;;;;;;;;;;16.06;89.22;99757.56;5007795;28;19952;-71
2022/06/03 00:35:20;;;;;;;;;;;;;;;15.95;88.92;99754.25;5004758;28;20365;-73
2022/06/03 00:37:49;;;;;;;;;;;;;;;16.01;89.39;99764.84;5004820;28;19932;-72
2022/06/03 00:40:25;;;;;;;;;;;;;;;16.04;88.97;99768.09;4988404;28;19925;-73
2022/06/03 00:43:02;;;;;;;;;;;;;;;16.06;89.23;99765.84;5003813;28;19925;-73
2022/06/03 00:45:45;;;;;;;;;;;;;;;16.05;89.16;99776.06;5003403;28;20188;-72
2022/06/03 00:48:22;;;;;;;;;;;;;;;16.03;89.10;99778.34;5004515;28;20091;-72
2022/06/03 00:51:02;;;;;;;;;;;;;;;16.01;89.00;99773.13;5005894;28;19948;-72
2022/06/03 00:53:38;;;;;;;;;;;;;;;15.99;89.09;99786.41;5002718;28;20310;-72
2022/06/03 00:56:27;;;;;;;;;;;;;;;16.00;89.23;99782.53;4986615;28;19929;-73
2022/06/03 00:59:01;;;;;;;;;;;;;;;16.02;89.32;99785.78;5003407;28;19925;-73
2022/06/03 01:01:28;;;;;;;;;;;;;;;16.07;88.85;99782.09;5003510;28;19925;-72
2022/06/03 01:04:01;;;;;;;;;;;;;;;16.10;88.32;99786.97;5000125;28;19929;-72
2022/06/03 01:06:36;;;;;;;;;;;;;;;16.12;87.57;99781.16;5004457;28;20034;-73
2022/06/03 01:09:12;;;;;;;;;;;;;;;16.14;87.48;99776.13;5002800;28;19925;-73
2022/06/03 01:11:52;;;;;;;;;;;;;;;16.16;87.18;99765.59;5005345;28;19971;-73
2022/06/03 01:14:27;;;;;;;;;;;;;;;16.16;86.66;99774.72;5022642;28;19935;-73
2022/06/03 01:17:06;;;;;;;;;;;;;;;16.19;86.11;99772.44;5038467;28;20031;-73
2022/06/03 01:19:37;;;;;;;;;;;;;;;16.23;86.20;99767.94;5022684;28;20006;-73
2022/06/03 01:22:14;;;;;;;;;;;;;;;16.28;85.46;99770.53;5018888;28;19931;-72
2022/06/03 01:24:59;;;;;;;;;;;;;;;16.34;85.35;99766.56;5022740;28;19961;-74
2022/06/03 01:27:44;;;;;;;;;;;;;;;16.40;85.05;99762.53;5022026;28;19933;-72
2022/06/03 01:30:17;;;;;;;;;;;;;;;16.49;84.36;99761.78;5037466;28;19931;-73
2022/06/03 01:32:56;;;;;;;;;;;;;;;16.51;84.19;99756.75;5019278;28;20031;-72
2022/06/03 01:35:48;;;;;;;;;;;;;;;16.47;83.55;99752.97;5020093;28;19940;-72
2022/06/03 01:38:21;;;;;;;;;;;;;;;16.39;83.70;99760.88;5022450;28;20172;-72
2022/06/03 01:40:59;;;;;;;;;;;;;;;16.33;84.37;99751.13;5020870;28;20367;-73
2022/06/03 01:43:38;;;;;;;;;;;;;;;16.24;84.25;99739.22;5020257;28;19932;-70
2022/06/03 01:46:15;;;;;;;;;;;;;;;16.18;84.82;99743.25;5024662;28;19929;-73
2022/06/03 01:48:52;;;;;;;;;;;;;;;16.12;84.94;99740.59;5022480;28;19925;-73
2022/06/03 01:51:28;;;;;;;;;;;;;;;16.10;84.63;99742.03;5024060;28;19925;-74
2022/06/03 01:54:18;;;;;;;;;;;;;;;16.04;84.70;99749.63;5019975;28;20023;-72
2022/06/03 01:56:56;;;;;;;;;;;;;;;16.02;84.61;99749.13;4979303;28;19981;-72
2022/06/03 01:59:40;;;;;;;;;;;;;;;15.96;84.96;99739.34;4982298;28;20619;-73
2022/06/03 02:02:33;;;;;;;;;;;;;;;15.92;84.97;99743.84;4984439;28;20393;-74
2022/06/03 02:05:14;;;;;;;;;;;;;;;15.88;85.33;99743.63;4971367;28;19928;-73
2022/06/03 02:07:51;;;;;;;;;;;;;;;15.86;85.23;99737.59;5001065;28;20396;-72
2022/06/03 02:10:35;;;;;;;;;;;;;;;15.84;85.33;99743.44;5003094;28;19952;-73
2022/06/03 02:13:19;;;;;;;;;;;;;;;15.86;85.50;99741.19;5002651;28;19925;-73
2022/06/03 02:15:58;;;;;;;;;;;;;;;15.90;85.58;99743.34;5003395;28;19921;-73
2022/06/03 02:18:32;;;;;;;;;;;;;;;15.91;85.71;99740.25;5002525;28;19925;-73
2022/06/03 02:21:20;;;;;;;;;;;;;;;15.95;85.45;99737.72;5003337;28;19926;-73
2022/06/03 02:23:57;;;;;;;;;;;;;;;16.00;85.11;99735.63;4988414;28;19925;-73
2022/06/03 02:26:42;;;;;;;;;;;;;;;16.02;85.06;99733.38;5005788;28;19925;-73
2022/06/03 02:32:26;;;;;;;;;;;;;;;15.84;84.95;99709.53;4969956;28;19959;-72
2022/06/03 02:35:01;;;;;;;;;;;;;;;15.95;85.17;99730.25;5001548;28;20376;-72
2022/06/03 02:37:40;;;;;;;;;;;;;;;15.99;85.22;99733.19;4987496;28;19925;-72
2022/06/03 02:40:20;;;;;;;;;;;;;;;16.01;85.29;99729.00;5002095;28;19925;-71
2022/06/03 02:43:03;;;;;;;;;;;;;;;16.09;84.69;99726.63;5004308;28;19925;-72
2022/06/03 02:45:48;;;;;;;;;;;;;;;16.11;84.88;99727.13;5020718;28;20032;-72
2022/06/03 02:48:40;;;;;;;;;;;;;;;16.14;84.67;99721.78;5000464;28;19925;-73
2022/06/03 02:51:11;;;;;;;;;;;;;;;16.17;84.77;99723.09;5001890;28;19956;-74
2022/06/03 02:53:54;;;;;;;;;;;;;;;16.22;84.35;99719.41;5004825;28;19926;-72
2022/06/03 02:56:30;;;;;;;;;;;;;;;16.23;84.01;99721.03;5006732;28;19925;-72
2022/06/03 02:59:14;;;;;;;;;;;;;;;16.31;84.34;99714.75;5014443;28;19924;-73
2022/06/03 03:01:52;;;;;;;;;;;;;;;16.46;84.00;99719.06;5027537;28;19920;-73
2022/06/03 03:04:30;;;;;;;;;;;;;;;16.61;83.47;99715.06;5026000;28;20018;-72
2022/06/03 03:07:15;;;;;;;;;;;;;;;16.72;83.10;99719.19;5028242;28;19924;-71
2022/06/03 03:09:58;;;;;;;;;;;;;;;16.82;82.54;99715.31;5024947;28;19960;-72
2022/06/03 03:12:35;;;;;;;;;;;;;;;16.86;82.24;99713.56;5022214;28;19928;-74
2022/06/03 03:15:08;;;;;;;;;;;;;;;16.91;82.18;99722.81;5024449;28;19925;-72
2022/06/03 03:17:52;;;;;;;;;;;;;;;16.89;81.55;99714.84;5041322;28;20404;-73
2022/06/03 03:20:44;;;;;;;;;;;;;;;16.82;81.63;99715.31;5020738;28;19948;-72
2022/06/03 03:23:28;;;;;;;;;;;;;;;16.81;82.03;99713.69;5000015;28;19925;-73
2022/06/03 03:26:03;;;;;;;;;;;;;;;16.87;81.94;99706.91;5025037;28;19925;-73
2022/06/03 03:28:52;;;;;;;;;;;;;;;16.98;81.98;99703.84;5041563;28;20350;-73
2022/06/03 03:31:42;;;;;;;;;;;;;;;17.12;81.29;99706.53;5039169;28;19925;-73
2022/06/03 03:34:15;;;;;;;;;;;;;;;17.19;81.11;99708.81;5026738;28;19987;-72
2022/06/03 03:36:56;;;;;;;;;;;;;;;17.25;80.49;99713.88;5026128;28;19924;-73
2022/06/03 03:39:39;;;;;;;;;;;;;;;17.32;80.59;99709.81;5040708;28;20016;-72
2022/06/03 03:42:22;;;;;;;;;;;;;;;17.48;80.06;99719.25;4989914;28;19932;-73
2022/06/03 03:45:02;;;;;;;;;;;;;;;17.53;79.27;99701.69;4989336;28;20363;-73
2022/06/03 03:47:53;;;;;;;;;;;;;;;17.58;79.23;99712.59;5003114;28;19932;-72
2022/06/03 03:50:37;;;;;;;;;;;;;;;17.60;78.94;99709.50;5004608;28;19925;-73
2022/06/03 03:53:16;;;;;;;;;;;;;;;17.68;78.74;99708.69;5005197;28;19925;-72
2022/06/03 03:55:57;;;;;;;;;;;;;;;17.75;78.77;99708.19;5005912;28;20015;-73
2022/06/03 03:58:51;;;;;;;;;;;;;;;17.81;78.69;99701.38;4987446;28;19929;-73
2022/06/03 04:01:34;;;;;;;;;;;;;;;17.86;78.56;99698.44;5004816;28;20063;-73
2022/06/03 04:04:24;;;;;;;;;;;;;;;17.99;78.14;99691.94;5004588;28;20312;-73
2022/06/03 04:07:01;;;;;;;;;;;;;;;18.10;77.95;99689.66;5004337;28;19925;-73
2022/06/03 04:09:54;;;;;;;;;;;;;;;18.15;77.94;99683.16;5004821;28;19925;-72
2022/06/03 04:12:44;;;;;;;;;;;;;;;18.21;77.39;99683.78;5006800;28;19926;-73
2022/06/03 04:15:24;;;;;;;;;;;;;;;18.18;77.27;99688.00;4988127;28;19925;-72
2022/06/03 04:18:07;;;;;;;;;;;;;;;18.18;77.24;99678.88;5001122;28;19925;-72
2022/06/03 04:20:47;;;;;;;;;;;;;;;18.18;77.20;99676.13;5005357;28;20001;-72
2022/06/03 04:23:32;;;;;;;;;;;;;;;18.21;77.40;99661.66;5000477;28;19931;-73
2022/06/03 04:26:21;;;;;;;;;;;;;;;18.31;77.25;99666.00;4992616;28;19983;-72
2022/06/03 04:28:59;;;;;;;;;;;;;;;18.32;77.06;99673.97;5006686;28;19963;-73
2022/06/03 04:31:43;;;;;;;;;;;;;;;18.42;77.06;99667.28;5005529;28;19936;-73
2022/06/03 04:34:37;;;;;;;;;;;;;;;18.50;76.50;99665.63;5003292;28;19935;-73
2022/06/03 04:37:23;;;;;;;;;;;;;;;18.56;76.61;99656.00;5005748;28;20013;-73
2022/06/03 04:40:07;;;;;;;;;;;;;;;18.68;76.31;99650.56;5006896;28;19932;-73
2022/06/03 04:43:06;;;;;;;;;;;;;;;18.78;76.13;99646.59;4989647;28;20381;-72
2022/06/03 04:45:46;;;;;;;;;;;;;;;18.93;75.83;99653.50;5022457;28;19924;-73
2022/06/03 04:48:36;;;;;;;;;;;;;;;18.93;74.96;99664.59;4982568;28;19925;-73
2022/06/03 04:51:19;;;;;;;;;;;;;;;18.89;75.50;99660.03;4933626;28;19925;-72
2022/06/03 04:54:12;;;;;;;;;;;;;;;18.89;75.23;99658.09;4995148;28;20075;-72
2022/06/03 04:57:02;;;;;;;;;;;;;;;18.91;75.37;99650.25;4980521;28;20025;-72
2022/06/03 04:59:52;;;;;;;;;;;;;;;19.01;75.46;99618.63;5007008;28;20490;-73
2022/06/03 05:02:39;;;;;;;;;;;;;;;19.19;75.05;99602.69;5005142;28;19965;-73
2022/06/03 05:05:26;;;;;;;;;;;;;;;19.34;74.78;99594.91;4976333;28;20004;-73
2022/06/03 05:08:10;;;;;;;;;;;;;;;19.51;74.28;99599.47;5003119;28;19952;-73
2022/06/03 05:10:54;;;;;;;;;;;;;;;19.67;73.54;99603.25;5004674;28;19921;-73
2022/06/03 05:13:44;;;;;;;;;;;;;;;19.77;73.00;99590.94;5003774;28;19991;-73
2022/06/03 05:16:27;;;;;;;;;;;;;;;19.92;72.65;99577.59;4983235;28;20456;-72
2022/06/03 05:19:17;;;;;;;;;;;;;;;20.05;72.31;99573.66;4980414;28;19925;-73
2022/06/03 05:21:59;;;;;;;;;;;;;;;20.14;72.17;99562.47;5005696;28;20230;-71
2022/06/03 05:24:49;;;;;;;;;;;;;;;20.19;72.05;99575.28;5001765;28;19925;-72
2022/06/03 05:27:32;;;;;;;;;;;;;;;20.26;71.86;99590.22;5004574;28;19929;-73
2022/06/03 05:30:16;;;;;;;;;;;;;;;20.29;71.79;99594.28;5002308;28;19932;-72
2022/06/03 05:33:01;;;;;;;;;;;;;;;20.47;71.26;99605.97;5017416;28;20321;-75
2022/06/03 05:35:44;;;;;;;;;;;;;;;20.60;70.59;99603.19;4996746;28;19925;-72
2022/06/03 05:38:19;;;;;;;;;;;;;;;20.78;70.18;99599.03;4991850;28;19925;-72
2022/06/03 05:40:55;;;;;;;;;;;;;;;20.85;69.90;99617.09;4651063;28;10000161;-72
2022/06/03 05:43:39;;;;;;;;;;;;;;;20.79;69.77;99613.72;4997650;28;19929;-73
2022/06/03 05:46:14;;;;;;;;;;;;;;;20.65;69.79;99619.63;5004503;28;19932;-73
2022/06/03 05:48:44;;;;;;;;;;;;;;;20.65;70.12;99633.53;5001907;28;20387;-71
2022/06/03 05:51:16;;;;;;;;;;;;;;;20.74;70.12;99639.75;5008217;28;20016;-72
2022/06/03 05:53:48;;;;;;;;;;;;;;;20.84;69.45;99646.84;4995450;28;19968;-73
2022/06/03 05:56:33;;;;;;;;;;;;;;;20.86;69.09;99655.66;4995944;28;20032;-73
2022/06/03 05:59:03;;;;;;;;;;;;;;;20.90;69.06;99645.44;4982460;28;19925;-72
2022/06/03 06:01:39;;;;;;;;;;;;;;;20.76;69.29;99653.31;4993722;28;19925;-72
2022/06/03 06:04:10;;;;;;;;;;;;;;;20.64;69.77;99648.56;5012007;28;20450;-73
2022/06/03 06:06:38;;;;;;;;;;;;;;;20.62;70.06;99642.56;5011593;28;19936;-73
2022/06/03 06:09:21;;;;;;;;;;;;;;;20.72;70.08;99630.16;5028381;28;20033;-72
2022/06/03 06:12:00;;;;;;;;;;;;;;;20.93;69.63;99613.41;5011950;28;20450;-72
2022/06/03 06:14:31;;;;;;;;;;;;;;;20.92;69.35;99632.03;4999804;28;20427;-72
2022/06/03 06:17:00;;;;;;;;;;;;;;;20.89;69.80;99626.34;4996790;28;19925;-70
2022/06/03 06:19:36;;;;;;;;;;;;;;;20.82;70.23;99624.97;5018247;28;19929;-71
2022/06/03 06:22:09;;;;;;;;;;;;;;;20.75;69.95;99630.25;5005040;28;19925;-72
2022/06/03 06:24:45;;;;;;;;;;;;;;;20.62;70.67;99625.88;5006796;28;19936;-72
2022/06/03 06:27:30;;;;;;;;;;;;;;;20.48;71.05;99609.56;5005403;28;19950;-71
2022/06/03 06:29:56;;;;;;;;;;;;;;;;;;5004738;28;20515;-71
2022/06/03 06:32:35;;;;;;;;;;;;;;;20.26;71.32;99634.63;5003273;28;20355;-71
2022/06/03 06:35:20;;;;;;;;;;;;;;;20.34;71.55;99619.03;5004800;28;19932;-71
2022/06/03 06:37:55;;;;;;;;;;;;;;;20.53;71.28;99621.25;5007726;28;20024;-71
2022/06/03 06:40:38;;;;;;;;;;;;;;;20.60;70.49;99625.41;5016856;28;19924;-72
2022/06/03 06:43:08;;;;;;;;;;;;;;;20.41;70.68;99624.00;5026407;28;19936;-71
2022/06/03 06:45:36;;;;;;;;;;;;;;;20.22;71.19;99622.59;5027797;28;19931;-71
2022/06/03 06:48:09;;;;;;;;;;;;;;;20.07;71.89;99618.53;5026399;28;19955;-72
2022/06/03 06:50:41;;;;;;;;;;;;;;;20.03;72.30;99619.56;5043210;28;19929;-72
2022/06/03 06:53:10;;;;;;;;;;;;;;;19.97;72.12;99622.53;5027997;28;20392;-71
2022/06/03 06:55:47;;;;;;;;;;;;;;;19.80;72.84;99615.19;5026750;28;19986;-71
2022/06/03 06:58:21;;;;;;;;;;;;;;;19.56;73.64;99624.25;5041576;28;19932;-71
2022/06/03 07:00:49;;;;;;;;;;;;;;;19.34;74.32;99639.25;5026916;28;20024;-72
2022/06/03 07:03:18;;;;;;;;;;;;;;;19.09;79.09;99658.50;5010842;28;19982;-72
2022/06/03 07:05:47;;;;;;;;;;;;;;;18.07;84.61;99648.00;5027187;28;19924;-73
2022/06/03 07:08:16;;;;;;;;;;;;;;;17.21;89.38;99665.09;5022398;28;19925;-72
2022/06/03 07:10:47;;;;;;;;;;;;;;;16.75;92.26;99650.66;5030626;28;20426;-71
2022/06/03 07:13:16;;;;;;;;;;;;;;;16.45;94.65;99652.00;5030789;28;19925;-71
2022/06/03 07:15:53;;;;;;;;;;;;;;;16.29;95.60;99648.88;5029186;28;19925;-71
2022/06/03 07:21:13;;;;;;;;;;;;;;;16.08;97.55;99667.06;5028490;28;19925;-71
2022/06/03 07:23:43;;;;;;;;;;;;;;;15.93;97.94;99674.63;5045070;28;19925;-71
2022/06/03 07:26:13;;;;;;;;;;;;;;;15.85;98.37;99673.41;5042689;28;19936;-71
2022/06/03 07:28:42;;;;;;;;;;;;;;;15.79;99.22;99666.38;5028386;28;19929;-71
2022/06/03 07:31:12;;;;;;;;;;;;;;;15.78;99.71;99659.22;5026619;28;19924;-71
2022/06/03 07:33:42;;;;;;;;;;;;;;;15.79;99.96;99654.53;5013941;28;19925;-71
2022/06/03 07:36:13;;;;;;;;;;;;;;;15.92;100.00;99639.09;5008215;28;20421;-71
2022/06/03 07:38:42;;;;;;;;;;;;;;;16.11;100.00;99631.41;5024377;28;19956;-71
2022/06/03 07:41:11;;;;;;;;;;;;;;;16.25;100.00;99630.50;5005787;28;19929;-71
2022/06/03 07:43:42;;;;;;;;;;;;;;;16.50;100.00;99622.66;5015238;28;19925;-70
2022/06/03 07:46:12;;;;;;;;;;;;;;;16.89;100.00;99622.94;5018753;28;20012;-71
2022/06/03 07:48:38;;;;;;;;;;;;;;;17.35;100.00;99623.50;5012838;28;19925;-71
2022/06/03 07:51:06;;;;;;;;;;;;;;;17.67;100.00;99629.66;5020960;28;19925;-71
2022/06/03 07:53:36;;;;;;;;;;;;;;;17.82;100.00;99636.66;5010526;28;20400;-71
2022/06/03 07:56:02;;;;;;;;;;;;;;;17.78;99.44;99639.25;4987781;28;20360;-71
2022/06/03 07:58:30;;;;;;;;;;;;;;;17.70;99.43;99632.59;4991878;28;19925;-71
2022/06/03 08:00:58;;;;;;;;;;;;;;;17.68;99.22;99639.56;5006009;28;20368;-71
2022/06/03 08:03:25;;;;;;;;;;;;;;;17.60;98.46;99640.41;5008823;28;20003;-71
2022/06/03 08:05:55;;;;;;;;;;;;;;;17.71;98.59;99647.22;5007173;28;19948;-71
2022/06/03 08:11:11;;;;;;;;;;;;;;;17.68;94.97;99637.63;5008290;28;19926;-71
2022/06/03 08:13:47;;;;;;;;;;;;;;;17.74;94.22;99646.59;5008033;28;20454;-72
2022/06/03 08:16:23;;;;;;;;;;;;;;;17.49;91.28;99651.00;5007428;28;19925;-72
2022/06/03 08:18:49;;;;;;;;;;;;;;;17.50;89.99;99642.34;5006558;28;19948;-71
2022/06/03 08:21:18;;;;;;;;;;;;;;;17.74;89.71;99643.00;5004435;28;20036;-72
2022/06/03 08:23:45;;;;;;;;;;;;;;;18.02;88.54;99637.09;5006104;28;20019;-72
2022/06/03 08:26:13;;;;;;;;;;;;;;;18.18;87.88;99640.16;5015510;28;19932;-72
2022/06/03 08:28:43;;;;;;;;;;;;;;;18.17;86.83;99633.81;5009735;28;20408;-72
2022/06/03 08:31:09;;;;;;;;;;;;;;;18.22;86.12;99647.47;5007464;28;19935;-72
2022/06/03 08:33:39;;;;;;;;;;;;;;;18.26;86.04;99651.22;5005462;28;20357;-72
2022/06/03 08:36:06;;;;;;;;;;;;;;;18.18;85.65;99652.03;5005550;28;19937;-72
2022/06/03 08:38:38;;;;;;;;;;;;;;;18.08;85.61;99658.75;5006163;28;19960;-72
2022/06/03 08:41:11;;;;;;;;;;;;;;;18.03;85.17;99664.47;5007285;28;19925;-72
2022/06/03 08:43:40;;;;;;;;;;;;;;;18.10;85.58;99656.47;5005884;28;20293;-72
2022/06/03 08:46:10;;;;;;;;;;;;;;;18.36;84.58;99657.53;5004462;28;19930;-72
2022/06/03 08:48:40;;;;;;;;;;;;;;;18.67;82.89;99662.78;5008483;28;19987;-72
2022/06/03 08:51:11;;;;;;;;;;;;;;;18.95;81.19;99670.59;4997465;28;20443;-73
2022/06/03 08:53:41;;;;;;;;;;;;;;;19.33;80.69;99673.66;4984197;28;19926;-72
2022/06/03 08:56:08;;;;;;;;;;;;;;;19.75;78.59;99678.38;5004918;28;19995;-72
2022/06/03 08:58:38;;;;;;;;;;;;;;;20.30;75.60;99686.69;5005752;28;19975;-71
2022/06/03 09:01:06;;;;;;;;;;;;;;;20.22;73.75;99680.09;5005357;28;20483;-73
2022/06/03 09:03:37;;;;;;;;;;;;;;;19.84;75.08;99679.94;5006865;28;19936;-72
2022/06/03 09:06:10;;;;;;;;;;;;;;;19.52;75.65;99687.88;5005752;28;20402;-73
2022/06/03 09:08:38;;;;;;;;;;;;;;;19.23;75.90;99683.19;5021352;28;19972;-71
2022/06/03 09:11:10;;;;;;;;;;;;;;;19.10;74.83;99680.34;5004682;28;20053;-73
2022/06/03 09:13:40;;;;;;;;;;;;;;;19.17;75.31;99682.56;5019184;28;19925;-72
2022/06/03 09:16:08;;;;;;;;;;;;;;;19.62;74.45;99685.84;5026699;28;20081;-71
2022/06/03 09:18:36;;;;;;;;;;;;;;;20.29;71.66;99694.22;5024457;28;19931;-72
2022/06/03 09:21:04;;;;;;;;;;;;;;;20.73;69.11;99695.66;5042240;28;19925;-72
2022/06/03 09:23:36;;;;;;;;;;;;;;;20.50;67.81;99691.34;5022207;28;19924;-72
2022/06/03 09:26:02;;;;;;;;;;;;;;;19.87;68.63;99691.50;5026492;28;20299;-72
2022/06/03 09:28:31;;;;;;;;;;;;;;;19.37;70.52;99682.94;5024218;28;19951;-71
2022/06/03 09:30:58;;;;;;;;;;;;;;;19.10;72.69;99696.13;5026925;28;20007;-72
2022/06/03 09:33:25;;;;;;;;;;;;;;;18.92;74.34;99704.50;5024320;28;20405;-71
2022/06/03 09:35:52;;;;;;;;;;;;;;;18.73;73.95;99698.59;5025355;28;19929;-71
2022/06/03 09:38:19;;;;;;;;;;;;;;;18.53;74.38;99698.97;5017153;28;19935;-72
2022/06/03 09:40:47;;;;;;;;;;;;;;;18.38;74.51;99708.66;5005094;28;19936;-72
2022/06/03 09:43:15;;;;;;;;;;;;;;;18.27;74.83;99697.13;5013453;28;19931;-72
2022/06/03 09:45:45;;;;;;;;;;;;;;;18.21;75.01;99692.09;5025280;28;19929;-72
2022/06/03 09:48:11;;;;;;;;;;;;;;;18.12;75.31;99698.44;5023505;28;20425;-71
2022/06/03 09:50:37;;;;;;;;;;;;;;;18.09;75.28;99701.03;5041445;28;20351;-72
2022/06/03 09:53:05;;;;;;;;;;;;;;;18.02;76.62;99709.00;5028706;28;19925;-72
2022/06/03 09:55:32;;;;;;;;;;;;;;;18.03;76.88;99688.53;5014828;28;20032;-72
2022/06/03 09:58:00;;;;;;;;;;;;;;;18.10;76.52;99703.50;5018042;28;19931;-73
2022/06/03 10:00:29;;;;;;;;;;;;;;;18.05;76.03;99700.91;5023859;28;19925;-72
2022/06/03 10:02:56;;;;;;;;;;;;;;;18.09;76.18;99709.34;5021582;28;19925;-73
2022/06/03 10:05:23;;;;;;;;;;;;;;;18.04;75.80;99702.03;5019216;28;20537;-73
2022/06/03 10:07:56;;;;;;;;;;;;;;;18.08;75.34;99702.19;5006651;28;20020;-70
2022/06/03 10:13:09;;;;;;;;;;;;;;;18.28;74.52;99695.97;4990574;28;20048;-71
2022/06/03 10:18:09;;;;;;;;;;;;;;;18.47;73.39;99691.19;5017142;28;19925;-71
2022/06/03 10:20:35;;;;;;;;;;;;;;;18.74;72.26;99683.59;5019393;28;19956;-72
2022/06/03 10:23:01;;;;;;;;;;;;;;;18.92;71.74;99685.13;5005612;28;19949;-72
2022/06/03 10:25:28;;;;;;;;;;;;;;;19.12;70.64;99678.03;5003586;28;19953;-72
2022/06/03 10:27:53;;;;;;;;;;;;;;;19.06;70.16;99681.34;5005691;28;19956;-71
2022/06/03 10:30:26;;;;;;;;;;;;;;;18.96;69.45;99682.50;5006950;28;19929;-71
2022/06/03 10:32:52;;;;;;;;;;;;;;;19.00;69.47;99677.94;5000710;28;19972;-71
2022/06/03 10:35:18;;;;;;;;;;;;;;;19.11;68.69;99687.50;4985907;28;19926;-72
2022/06/03 10:37:48;;;;;;;;;;;;;;;19.30;67.60;99708.41;4985398;28;20468;-71
2022/06/03 10:40:14;;;;;;;;;;;;;;;19.39;67.07;99695.31;4990606;28;19926;-71
2022/06/03 10:42:44;;;;;;;;;;;;;;;19.74;65.99;99691.44;5019279;28;20375;-71
2022/06/03 10:45:10;;;;;;;;;;;;;;;20.04;65.40;99685.00;5002735;28;19925;-71
2022/06/03 10:47:39;;;;;;;;;;;;;;;19.85;65.48;99691.84;4989738;28;20091;-71
2022/06/03 10:50:08;;;;;;;;;;;;;;;19.88;67.01;99701.44;5005178;28;19956;-71
2022/06/03 11:01:09;;;;;;;;;;;;;;;19.57;66.69;99728.44;5000588;28;19926;-70
2022/06/03 11:03:38;;;;;;;;;;;;;;;19.66;66.67;99768.00;4985333;28;20322;-71
2022/06/03 11:06:06;;;;;;;;;;;;;;;20.05;63.27;99756.00;4986866;28;20320;-71
2022/06/03 11:08:45;;;;;;;;;;;;;;;20.36;61.30;99754.72;5022678;28;19932;-70
2022/06/03 11:11:11;;;;;;;;;;;;;;;20.27;61.24;99763.94;5029272;28;20296;-71
2022/06/03 11:13:39;;;;;;;;;;;;;;;20.28;61.64;99750.88;5018503;28;19924;-71
2022/06/03 11:16:12;;;;;;;;;;;;;;;20.18;61.03;99766.00;5009428;28;19979;-71
2022/06/03 11:18:41;;;;;;;;;;;;;;;20.03;61.71;99769.41;5021643;28;20011;-71
2022/06/03 11:21:16;;;;;;;;;;;;;;;19.58;62.74;99759.75;5045160;28;19925;-71
2022/06/03 11:23:42;;;;;;;;;;;;;;;19.02;63.96;99760.72;5026127;28;19968;-71
2022/06/03 11:26:09;;;;;;;;;;;;;;;18.73;65.07;99771.38;5027077;28;19925;-71
2022/06/03 11:28:38;;;;;;;;;;;;;;;18.60;66.38;99764.13;5023702;28;19975;-71
2022/06/03 11:31:05;;;;;;;;;;;;;;;18.51;65.57;99777.97;5027034;28;19929;-70
2022/06/03 11:33:36;;;;;;;;;;;;;;;18.37;66.48;99784.50;5028122;28;19932;-71
2022/06/03 11:36:05;;;;;;;;;;;;;;;18.40;66.79;99781.09;5046276;28;20246;-71
2022/06/03 11:38:34;;;;;;;;;;;;;;;18.41;66.52;99793.78;5040603;28;20003;-71
2022/06/03 11:41:02;;;;;;;;;;;;;;;18.32;66.69;99804.03;4994728;28;19925;-70
2022/06/03 11:43:32;;;;;;;;;;;;;;;18.21;66.71;99802.75;5007449;28;20315;-71
2022/06/03 11:46:02;;;;;;;;;;;;;;;18.02;66.62;99800.28;5022781;28;19999;-70
2022/06/03 11:48:29;;;;;;;;;;;;;;;17.82;67.04;99813.63;5006021;28;19972;-71
2022/06/03 11:50:57;;;;;;;;;;;;;;;17.76;66.67;99818.50;5022705;28;20023;-71
2022/06/03 11:53:25;;;;;;;;;;;;;;;17.95;66.27;99829.25;5007045;28;20451;-71
2022/06/03 11:55:52;;;;;;;;;;;;;;;18.13;64.42;99821.78;5007122;28;20411;-71
2022/06/03 11:58:20;;;;;;;;;;;;;;;18.45;63.38;99831.88;5024684;28;20407;-71
2022/06/03 12:00:47;;;;;;;;;;;;;;;19.04;60.92;99841.53;5008031;28;19941;-71
2022/06/03 12:03:24;;;;;;;;;;;;;;;20.30;57.93;99831.06;4991567;28;19925;-71
2022/06/03 12:05:56;;;;;;;;;;;;;;;20.32;56.65;99839.84;5006294;28;19979;-71
2022/06/03 12:08:26;;;;;;;;;;;;;;;19.64;58.80;99841.59;5005787;28;19971;-71
2022/06/03 12:10:56;;;;;;;;;;;;;;;18.97;59.87;99839.25;5006234;28;20308;-70
2022/06/03 12:13:27;;;;;;;;;;;;;;;18.67;60.72;99841.94;5007373;28;20053;-71
2022/06/03 12:16:01;;;;;;;;;;;;;;;18.36;61.79;99851.25;5022951;28;19929;-71
2022/06/03 12:18:44;;;;;;;;;;;;;;;18.22;62.64;99846.69;5026421;28;19925;-71
2022/06/03 12:21:13;;;;;;;;;;;;;;;18.45;62.51;99852.06;5015804;28;19979;-71
2022/06/03 12:23:50;;;;;;;;;;;;;;;18.76;62.19;99856.59;5013782;28;19925;-71
2022/06/03 12:26:21;;;;;;;;;;;;;;;19.09;60.05;99861.56;5005905;28;19929;-71
2022/06/03 12:28:49;;;;;;;;;;;;;;;19.36;58.91;99867.84;4992020;28;20414;-71
2022/06/03 12:31:24;;;;;;;;;;;;;;;19.20;57.83;99875.88;5006412;28;20376;-71
2022/06/03 12:34:04;;;;;;;;;;;;;;;18.20;60.32;99875.84;5008058;28;20028;-71
2022/06/03 12:36:34;;;;;;;;;;;;;;;17.67;62.89;99884.81;5009026;28;20028;-71
2022/06/03 12:39:21;;;;;;;;;;;;;;;17.27;63.88;99893.94;5006519;28;19926;-71
2022/06/03 12:42:11;;;;;;;;;;;;;;;16.99;65.86;99885.81;5018372;28;19926;-70
2022/06/03 12:44:43;;;;;;;;;;;;;;;16.85;66.58;99891.38;5011153;28;19925;-71
2022/06/03 12:47:27;;;;;;;;;;;;;;;16.74;66.62;99901.06;5009225;28;20134;-71
2022/06/03 12:49:53;;;;;;;;;;;;;;;16.55;66.86;99893.78;5006274;28;19925;-70
2022/06/03 12:52:36;;;;;;;;;;;;;;;16.60;66.51;99903.88;5007320;28;19925;-71
2022/06/03 12:55:04;;;;;;;;;;;;;;;16.60;66.26;99914.91;5004678;28;19979;-70
2022/06/03 12:57:33;;;;;;;;;;;;;;;16.53;67.16;99909.03;5003452;28;19987;-71
2022/06/03 13:00:01;;;;;;;;;;;;;;;16.38;67.17;99912.94;5019718;28;20339;-70
2022/06/03 13:02:30;;;;;;;;;;;;;;;16.21;68.32;99919.94;5034934;28;19928;-71
2022/06/03 13:05:15;;;;;;;;;;;;;;;16.17;68.11;99924.44;5016541;28;20384;-71
2022/06/03 13:08:01;;;;;;;;;;;;;;;16.27;68.25;99926.16;5016747;28;19964;-71
2022/06/03 13:10:29;;;;;;;;;;;;;;;17.43;62.85;99937.75;5030905;28;19932;-71
2022/06/03 13:12:58;;;;;;;;;;;;;;;17.17;63.14;99926.53;5021857;28;19925;-71
2022/06/03 13:15:45;;;;;;;;;;;;;;;17.13;64.40;99931.88;5015906;28;20035;-71
2022/06/03 13:18:18;;;;;;;;;;;;;;;17.88;62.38;99930.44;5007048;28;19947;-71
2022/06/03 13:20:45;;;;;;;;;;;;;;;19.22;58.44;99929.00;5022833;28;19967;-71
2022/06/03 13:23:34;;;;;;;;;;;;;;;19.71;56.02;99936.16;5043719;28;20311;-71
2022/06/03 13:26:23;;;;;;;;;;;;;;;18.37;58.72;99939.50;5024346;28;19925;-71
2022/06/03 13:28:51;;;;;;;;;;;;;;;17.33;61.60;99949.88;4986251;28;20456;-70
2022/06/03 13:31:22;;;;;;;;;;;;;;;16.75;63.62;99940.53;5024158;28;20304;-71
2022/06/03 13:34:15;;;;;;;;;;;;;;;16.59;64.21;99949.16;5024192;28;19931;-71
2022/06/03 13:36:43;;;;;;;;;;;;;;;17.19;62.57;99962.97;5023854;28;20083;-71
2022/06/03 13:39:13;;;;;;;;;;;;;;;17.86;61.11;99950.91;5025048;28;19929;-71
2022/06/03 13:44:38;;;;;;;;;;;;;;;17.55;61.59;99971.09;5002559;28;20427;-71
2022/06/03 13:47:06;;;;;;;;;;;;;;;17.08;62.38;99965.16;5005009;28;19925;-71
2022/06/03 13:49:32;;;;;;;;;;;;;;;17.17;61.77;99973.50;5002558;28;19925;-70
2022/06/03 13:52:03;;;;;;;;;;;;;;;17.67;61.16;99956.72;5007159;28;19939;-71
2022/06/03 13:54:40;;;;;;;;;;;;;;;18.42;58.39;99967.00;4985574;28;19925;-71